Time;durP1;ratioP1;P1;durP2;ratioP2;P2;SDS_P1;SDS_P2;PMS_P1;PMS_P2;Temp;Humidity;BMP_temperature;BMP_pressure;BME280_temperature;BME280_humidity;BME280_pressure;Samples;Min_cycle;Max_cycle;Signal;HPM_P1;HPM_P2
2024/01/17 00:19:25;;;;;;;131.13;57.67;;;;;;;-143.21;79.41;73918.88;4946655;23;20273;-94
2024/01/17 00:50:43;;;;;;;88.00;42.60;;;;;;;-143.21;80.64;73934.72;1000164;23;20366;-92
2024/01/17 01:00:22;;;;;;;82.07;39.30;;;;;;;-143.21;80.95;73914.91;4973189;23;20235;-94
2024/01/17 01:03:22;;;;;;;83.53;39.77;;;;;;;-143.21;80.52;73908.94;4932230;23;20231;-94
2024/01/17 01:13:21;;;;;;;84.03;39.07;;;;;;;-143.21;80.66;73897.03;4970818;23;20319;-94
2024/01/17 01:22:29;;;;;;;76.57;37.43;;;;;;;-143.21;80.34;73891.09;4954550;23;20246;-95
2024/01/17 01:25:25;;;;;;;86.20;39.07;;;;;;;-143.21;80.74;73897.03;4925283;23;20235;-95
2024/01/17 01:28:21;;;;;;;84.83;39.80;;;;;;;-143.21;80.76;73891.09;4959054;23;20224;-95
2024/01/17 01:34:23;;;;;;;83.13;40.43;;;;;;;-143.21;80.35;73899.03;4923526;23;20241;-94
2024/01/17 01:37:21;;;;;;;83.07;39.27;;;;;;;-143.21;80.38;73914.91;4924006;23;20235;-96
2024/01/17 01:43:51;;;;;;;70.93;35.47;;;;;;;-143.21;79.61;73897.03;4933604;23;20240;-95
2024/01/17 01:46:40;;;;;;;68.40;34.50;;;;;;;-143.21;79.53;73908.94;4941864;29;20201;-93
2024/01/17 01:49:21;;;;;;;72.53;33.73;;;;;;;-143.21;79.26;73912.91;4948932;23;20233;-95
2024/01/17 01:55:29;;;;;;;62.50;32.10;;;;;;;-143.21;79.80;73942.66;4953878;23;20255;-96
2024/01/17 02:10:28;;;;;;;76.33;36.30;;;;;;;-143.21;79.97;73912.91;4959021;23;20244;-94
2024/01/17 02:22:19;;;;;;;74.17;36.43;;;;;;;-143.21;79.87;73891.09;4908957;29;20242;-95
2024/01/17 02:24:48;;;;;;;71.10;35.13;;;;;;;-143.21;79.53;73879.19;4917057;29;20262;-93
2024/01/17 02:27:15;;;;;;;70.80;34.70;;;;;;;-143.21;79.45;73891.09;4907492;29;20209;-94
2024/01/17 02:29:45;;;;;;;73.30;35.67;;;;;;;-143.21;79.52;73881.16;4914809;29;20226;-93
2024/01/17 02:32:12;;;;;;;73.53;37.10;;;;;;;-143.21;79.87;73887.13;4926497;29;20212;-95
2024/01/17 02:34:39;;;;;;;74.20;37.03;;;;;;;-143.21;79.53;73883.16;4934801;29;20205;-94
2024/01/17 02:37:10;;;;;;;68.00;35.50;;;;;;;-143.21;79.65;73879.19;4919932;29;20272;-95
2024/01/17 02:39:37;;;;;;;70.40;35.30;;;;;;;-143.21;79.32;73887.13;4919133;29;20207;-93
2024/01/17 02:42:06;;;;;;;76.13;35.83;;;;;;;-143.21;79.48;73887.13;4908425;29;20630;-94
2024/01/17 02:44:33;;;;;;;72.67;37.23;;;;;;;-143.21;80.10;73901.00;4909830;29;20212;-94
2024/01/17 02:47:02;;;;;;;72.60;35.43;;;;;;;-143.21;80.37;73903.00;4922539;29;20200;-94
2024/01/17 02:49:29;;;;;;;70.77;36.13;;;;;;;-143.21;80.65;73899.03;4927203;29;20218;-95
2024/01/17 02:51:57;;;;;;;75.77;36.53;;;;;;;-143.21;80.57;73897.03;4910054;29;20747;-95
2024/01/17 02:54:25;;;;;;;78.43;36.20;;;;;;;-143.21;80.31;73895.06;4926698;29;20223;-94
2024/01/17 02:56:52;;;;;;;73.53;35.80;;;;;;;-143.21;80.38;73903.00;4926946;29;20747;-94
2024/01/17 02:59:20;;;;;;;73.03;36.70;;;;;;;-143.21;80.56;73895.06;4925866;29;20203;-94
2024/01/17 03:01:50;;;;;;;71.77;36.27;;;;;;;-143.21;80.10;73891.09;4918230;29;20582;-95
2024/01/17 03:04:17;;;;;;;67.43;35.23;;;;;;;-143.21;80.39;73887.13;4908683;29;20216;-95
2024/01/17 03:06:46;;;;;;;74.43;35.33;;;;;;;-143.21;80.23;73887.13;4918846;29;20206;-93
2024/01/17 03:09:13;;;;;;;67.53;34.23;;;;;;;-143.21;80.16;73883.16;4929504;29;20209;-95
2024/01/17 03:11:40;;;;;;;65.50;33.67;;;;;;;-143.21;80.12;73875.22;4902970;29;20261;-95
2024/01/17 03:14:08;;;;;;;63.53;33.57;;;;;;;-143.21;79.89;73873.22;4898150;29;20580;-94
2024/01/17 03:16:37;;;;;;;63.57;33.13;;;;;;;-143.21;79.89;73869.25;4898465;29;20293;-94
2024/01/17 03:19:04;;;;;;;60.90;33.03;;;;;;;-143.21;79.85;73871.25;4907656;29;20305;-93
2024/01/17 03:21:31;;;;;;;68.10;35.10;;;;;;;-143.21;79.77;73869.25;4908196;29;20286;-95
2024/01/17 03:23:58;;;;;;;68.47;35.97;;;;;;;-143.21;79.71;73863.31;4909152;29;20206;-93
2024/01/17 03:26:25;;;;;;;71.97;35.67;;;;;;;-143.21;79.66;73867.28;4922364;29;20234;-93
2024/01/17 03:28:52;;;;;;;69.27;35.00;;;;;;;-143.21;79.92;73859.34;4906509;29;20209;-93
2024/01/17 03:31:19;;;;;;;66.40;35.53;;;;;;;-143.21;80.08;73843.47;4928799;29;20240;-93
2024/01/17 03:33:50;;;;;;;73.80;37.27;;;;;;;-143.21;79.87;73847.44;4927657;29;20213;-94
2024/01/17 03:36:17;;;;;;;76.53;37.23;;;;;;;-143.21;79.52;73843.47;4913015;29;20217;-94
2024/01/17 03:38:44;;;;;;;70.20;36.77;;;;;;;-143.21;79.26;73831.56;4916632;29;20207;-95
2024/01/17 03:41:11;;;;;;;77.10;37.27;;;;;;;-143.21;79.32;73833.53;4918479;29;20631;-93
2024/01/17 03:43:39;;;;;;;76.47;38.93;;;;;;;-143.21;79.25;73821.63;4930465;29;20753;-94
2024/01/17 03:46:06;;;;;;;93.13;42.83;;;;;;;-143.21;78.87;73827.59;4934539;29;20225;-94
2024/01/17 03:48:33;;;;;;;88.10;43.10;;;;;;;-143.21;79.07;73829.56;4924463;29;20237;-95
2024/01/17 03:51:02;;;;;;;109.23;50.33;;;;;;;-143.21;79.25;73849.41;4931652;29;20208;-94
2024/01/17 03:53:30;;;;;;;117.13;52.77;;;;;;;-143.21;79.08;73851.41;4915743;29;20209;-94
2024/01/17 03:55:56;;;;;;;116.47;53.40;;;;;;;-143.21;79.47;73871.25;4922526;29;20206;-94
2024/01/17 03:58:23;;;;;;;117.17;53.70;;;;;;;-143.21;79.63;73877.19;4914772;29;20210;-94
2024/01/17 04:00:51;;;;;;;113.37;53.03;;;;;;;-143.21;79.53;73881.16;4898054;29;20592;-94
2024/01/17 04:03:18;;;;;;;112.50;54.43;;;;;;;-143.21;79.71;73879.19;4909533;29;20282;-93
2024/01/17 04:05:45;;;;;;;111.77;53.40;;;;;;;-143.21;79.82;73881.16;4907535;29;20312;-95
2024/01/17 04:08:43;;;;;;;86.50;43.00;;;;;;;-143.21;79.47;73887.13;4901704;29;20208;-95
2024/01/17 04:11:25;;;;;;;67.60;35.00;;;;;;;-143.21;79.67;73885.13;4919403;29;20206;-95
2024/01/17 04:13:53;;;;;;;70.27;36.90;;;;;;;-143.21;79.30;73877.19;4918535;29;20204;-95
2024/01/17 04:16:26;;;;;;;78.50;39.70;;;;;;;-143.21;79.19;73879.19;4920583;29;20209;-93
2024/01/17 04:18:57;;;;;;;68.00;35.03;;;;;;;-143.21;79.37;73881.16;4924999;29;20203;-95
2024/01/17 04:21:26;;;;;;;73.07;35.03;;;;;;;-143.21;79.66;73885.13;4920885;29;20297;-95
2024/01/17 04:23:59;;;;;;;60.27;31.60;;;;;;;-143.21;79.33;73897.03;4912172;29;20204;-94
2024/01/17 04:26:28;;;;;;;64.00;32.90;;;;;;;-143.21;79.55;73906.97;4920013;29;20292;-96
2024/01/17 04:28:55;;;;;;;71.27;35.47;;;;;;;-143.21;80.14;73901.00;4921704;29;20199;-93
2024/01/17 04:31:32;;;;;;;65.83;35.23;;;;;;;-143.21;79.99;73895.06;4938156;29;20297;-94
2024/01/17 04:34:09;;;;;;;84.00;40.63;;;;;;;-143.21;79.77;73901.00;4927599;29;20223;-95
2024/01/17 04:36:39;;;;;;;68.80;35.30;;;;;;;-143.21;80.00;73904.97;4939723;29;20205;-94
2024/01/17 04:39:19;;;;;;;58.70;30.93;;;;;;;-143.21;80.32;73906.97;4917720;29;20255;-95
2024/01/17 04:41:46;;;;;;;63.07;33.23;;;;;;;-143.21;79.97;73910.94;4930782;29;20210;-93
2024/01/17 04:44:14;;;;;;;66.30;32.23;;;;;;;-143.21;79.92;73918.88;4908727;29;20199;-93
2024/01/17 04:46:41;;;;;;;62.10;30.53;;;;;;;-143.21;80.20;73916.88;4909251;29;20221;-94
2024/01/17 04:51:49;;;;;;;64.83;32.37;;;;;;;-143.21;80.36;73930.75;4908856;29;20247;-93
2024/01/17 04:54:17;;;;;;;66.57;32.63;;;;;;;-143.21;80.55;73926.78;4910770;29;20736;-94
2024/01/17 04:56:44;;;;;;;66.47;34.43;;;;;;;-143.21;80.52;73938.69;4913205;29;20624;-95
2024/01/17 04:59:11;;;;;;;92.40;45.53;;;;;;;-143.21;80.47;73954.56;4918890;29;20293;-95
2024/01/17 05:01:38;;;;;;;101.97;51.37;;;;;;;-143.21;80.24;73960.53;4905581;29;20211;-94
2024/01/17 05:04:05;;;;;;;118.60;54.83;;;;;;;-143.21;80.37;73970.44;4913126;29;20235;-93
2024/01/17 05:06:33;;;;;;;131.87;62.17;;;;;;;-143.21;80.52;73972.44;4914363;29;20701;-94
2024/01/17 05:09:03;;;;;;;132.60;61.77;;;;;;;-143.21;80.61;73958.53;4905217;29;20325;-93
2024/01/17 05:11:31;;;;;;;100.50;48.47;;;;;;;-143.21;80.40;73964.50;4912861;29;20219;-94
2024/01/17 05:13:58;;;;;;;85.80;43.60;;;;;;;-143.21;80.34;73958.53;4907091;29;20575;-94
2024/01/17 05:16:24;;;;;;;81.83;41.47;;;;;;;-143.21;80.68;73950.59;4900988;29;20249;-93
2024/01/17 05:18:51;;;;;;;76.83;39.43;;;;;;;-143.21;81.12;73972.44;4919564;29;20575;-95
2024/01/17 05:21:18;;;;;;;76.13;39.67;;;;;;;-143.21;81.34;73968.47;4911914;29;20242;-93
2024/01/17 05:23:45;;;;;;;82.87;40.23;;;;;;;-143.21;82.02;73964.50;4916236;29;20760;-93
2024/01/17 05:26:12;;;;;;;99.30;44.93;;;;;;;-143.21;82.38;73966.47;4915567;29;20761;-92
2024/01/17 05:28:40;;;;;;;86.77;44.93;;;;;;;-143.21;82.36;73954.56;4903957;29;20228;-93
2024/01/17 05:31:07;;;;;;;90.47;44.43;;;;;;;-143.21;82.42;73936.72;4906963;29;20206;-92
2024/01/17 05:33:34;;;;;;;95.70;48.70;;;;;;;-143.21;81.97;73916.88;4921498;29;20277;-93
2024/01/17 05:36:01;;;;;;;94.07;46.60;;;;;;;-143.21;81.93;73926.78;4915020;29;20199;-91
2024/01/17 05:38:28;;;;;;;95.20;46.07;;;;;;;-143.21;81.92;73914.91;4915550;29;20216;-93
2024/01/17 05:40:55;;;;;;;84.57;43.10;;;;;;;-143.21;81.89;73910.94;4915459;29;20214;-93
2024/01/17 05:43:22;;;;;;;83.77;43.87;;;;;;;-143.21;82.00;73908.94;4902655;29;20240;-92
2024/01/17 05:45:52;;;;;;;83.27;43.63;;;;;;;-143.21;82.21;73910.94;4910248;29;20226;-93
2024/01/17 05:48:20;;;;;;;103.47;48.60;;;;;;;-143.21;82.13;73906.97;4915391;29;20226;-95
2024/01/17 05:50:47;;;;;;;99.97;48.43;;;;;;;-143.21;81.26;73910.94;4921642;29;20229;-92
2024/01/17 05:53:14;;;;;;;152.00;75.40;;;;;;;-143.21;80.74;73914.91;4907339;29;20830;-93
2024/01/17 05:55:42;;;;;;;177.87;89.30;;;;;;;-143.21;81.03;73940.69;4909331;29;20633;-92
2024/01/17 05:58:09;;;;;;;174.00;88.77;;;;;;;-143.21;81.96;73936.72;4919523;29;20296;-94
2024/01/17 06:00:36;;;;;;;173.23;86.50;;;;;;;-143.21;81.49;73926.78;4907567;29;20205;-91
2024/01/17 06:03:06;;;;;;;142.20;68.73;;;;;;;-143.21;81.78;73904.97;4915333;29;20325;-92
2024/01/17 06:05:32;;;;;;;136.13;66.13;;;;;;;-143.21;81.37;73887.13;4895753;29;20203;-92
2024/01/17 06:07:59;;;;;;;126.60;61.70;;;;;;;-143.21;81.52;73875.22;4908494;29;20212;-94
2024/01/17 06:10:28;;;;;;;106.43;52.57;;;;;;;-143.21;81.38;73875.22;4902263;29;20216;-93
2024/01/17 06:12:55;;;;;;;99.20;47.80;;;;;;;-143.21;81.17;73879.19;4927347;29;20197;-94
2024/01/17 06:15:22;;;;;;;88.93;44.07;;;;;;;-143.21;81.18;73871.25;4912209;29;20216;-92
2024/01/17 06:17:52;;;;;;;83.17;42.23;;;;;;;-143.21;80.62;73871.25;4917654;29;20214;-92
2024/01/17 06:20:20;;;;;;;98.37;46.50;;;;;;;-143.21;80.39;73885.13;4923947;29;20316;-91
2024/01/17 06:22:47;;;;;;;101.67;47.27;;;;;;;-143.21;80.58;73893.06;4937646;29;20239;-94
2024/01/17 06:25:14;;;;;;;86.30;44.30;;;;;;;-143.21;81.45;73881.16;4939458;29;20206;-90
2024/01/17 06:27:42;;;;;;;92.03;45.13;;;;;;;-143.21;82.13;73879.19;4941355;29;20206;-93
2024/01/17 06:30:09;;;;;;;82.57;42.67;;;;;;;-143.21;82.20;73877.19;4937757;29;20197;-93
2024/01/17 06:32:36;;;;;;;95.40;48.87;;;;;;;-143.21;81.55;73881.16;4932117;29;20684;-93
2024/01/17 06:35:04;;;;;;;95.93;49.67;;;;;;;-143.21;81.31;73877.19;4931099;29;20629;-92
2024/01/17 06:37:32;;;;;;;90.90;46.23;;;;;;;-143.21;80.99;73875.22;4934862;29;20206;-92
2024/01/17 06:39:59;;;;;;;85.40;43.20;;;;;;;-143.21;80.53;73867.28;4931097;29;20209;-93
2024/01/17 06:42:26;;;;;;;107.03;49.83;;;;;;;-143.21;80.63;73875.22;4917501;29;20203;-93
2024/01/17 06:44:53;;;;;;;174.17;79.40;;;;;;;-143.21;81.40;73871.25;4924058;29;20264;-92
2024/01/17 06:47:19;;;;;;;177.57;87.57;;;;;;;-143.21;81.39;73865.28;4936897;29;20216;-93
2024/01/17 06:49:46;;;;;;;174.03;80.97;;;;;;;-143.21;81.60;73861.31;4940235;29;20232;-93
2024/01/17 06:52:13;;;;;;;163.87;80.10;;;;;;;-143.21;81.67;73847.44;4936512;29;20205;-92
2024/01/17 06:54:42;;;;;;;172.47;85.93;;;;;;;-143.21;81.29;73843.47;4935550;29;20341;-93
2024/01/17 06:57:09;;;;;;;188.50;92.77;;;;;;;-143.21;81.22;73833.53;4923102;29;20214;-94
2024/01/17 06:59:36;;;;;;;182.90;92.87;;;;;;;-143.21;80.90;73829.56;4957640;29;20209;-94
2024/01/17 07:02:04;;;;;;;172.40;86.87;;;;;;;-143.21;80.58;73815.69;4934549;29;20698;-92
2024/01/17 07:04:33;;;;;;;165.33;79.47;;;;;;;-143.21;80.79;73811.72;4932526;29;20641;-91
2024/01/17 07:07:00;;;;;;;134.07;66.90;;;;;;;-143.21;80.21;73797.84;4917316;29;20557;-92
2024/01/17 07:09:27;;;;;;;147.80;70.73;;;;;;;-143.21;80.03;73783.94;4931349;29;20208;-92
2024/01/17 07:11:55;;;;;;;160.53;78.13;;;;;;;-143.21;79.74;73783.94;4931145;29;20265;-92
2024/01/17 07:14:22;;;;;;;156.97;74.80;;;;;;;-143.21;79.74;73781.97;4941504;29;20209;-92
2024/01/17 07:16:52;;;;;;;153.70;76.20;;;;;;;-143.21;79.94;73779.97;4930952;29;20731;-93
2024/01/17 07:19:22;;;;;;;168.70;87.93;;;;;;;-143.21;79.56;73766.09;4931063;29;20202;-92
2024/01/17 07:21:50;;;;;;;174.33;87.70;;;;;;;-143.21;79.55;73762.13;4934522;29;20227;-93
2024/01/17 07:24:16;;;;;;;156.20;79.70;;;;;;;-143.21;79.34;73768.06;4930210;29;20222;-93
2024/01/17 07:26:43;;;;;;;143.50;76.93;;;;;;;-143.21;79.29;73764.09;4940072;29;20313;-93
2024/01/17 07:29:12;;;;;;;132.27;67.47;;;;;;;-143.21;79.03;73748.22;4946697;29;20206;-92
2024/01/17 07:31:39;;;;;;;109.23;57.47;;;;;;;-143.21;78.26;73742.28;4931979;29;20206;-92
2024/01/17 07:34:06;;;;;;;105.10;52.20;;;;;;;-143.21;77.66;73730.38;4917367;29;20267;-92
2024/01/17 07:36:33;;;;;;;82.07;43.13;;;;;;;-143.21;77.77;73724.44;4931562;29;20207;-93
2024/01/17 07:39:00;;;;;;;79.50;40.77;;;;;;;-143.21;77.27;73716.50;4926257;29;20229;-93
2024/01/17 07:41:29;;;;;;;64.77;35.23;;;;;;;-143.21;77.46;73720.47;4940503;29;20225;-92
2024/01/17 07:43:56;;;;;;;71.77;36.87;;;;;;;-143.21;77.28;73718.47;4939688;29;20229;-93
2024/01/17 07:46:26;;;;;;;69.27;34.67;;;;;;;-143.21;77.35;73706.56;4925294;29;20204;-92
2024/01/17 07:48:54;;;;;;;59.77;32.67;;;;;;;-143.21;76.56;73700.63;4942193;29;20222;-94
2024/01/17 07:51:21;;;;;;;58.17;31.90;;;;;;;-143.21;75.54;73686.72;4922323;29;20198;-92
2024/01/17 07:53:53;;;;;;;58.47;33.30;;;;;;;-143.21;75.09;73674.81;4929400;29;20203;-92
2024/01/17 07:56:20;;;;;;;55.43;32.07;;;;;;;-143.21;74.17;73653.00;4927925;29;20198;-93
2024/01/17 07:58:47;;;;;;;67.00;30.47;;;;;;;-143.21;73.91;73662.94;4933679;29;20195;-94
2024/01/17 08:01:18;;;;;;;59.30;31.33;;;;;;;-143.21;74.56;73674.81;4921280;29;20201;-93
2024/01/17 08:03:47;;;;;;;58.67;32.27;;;;;;;-143.21;74.79;73672.84;4915142;29;20239;-92
2024/01/17 08:06:13;;;;;;;65.30;34.77;;;;;;;-143.21;74.79;73668.88;4928342;29;20269;-93
2024/01/17 08:08:40;;;;;;;62.33;34.83;;;;;;;-143.21;75.17;73670.84;4939632;29;20288;-91
2024/01/17 08:11:07;;;;;;;64.90;36.17;;;;;;;-143.21;75.06;73664.91;4936879;29;20187;-93
2024/01/17 08:13:34;;;;;;;67.43;36.63;;;;;;;-143.21;74.22;73651.03;4941909;29;20201;-92
2024/01/17 08:18:37;;;;;;;64.55;35.40;;;;;;;-143.21;74.09;73649.03;5238608;23;20262;-95
2024/01/17 08:24:27;;;;;;;59.17;32.90;;;;;;;-143.21;74.35;73655.00;4943442;23;20238;-92
2024/01/17 08:37:20;;;;;;;74.70;41.40;;;;;;;-143.21;73.61;73651.03;4842796;29;20201;-92
2024/01/17 08:58:09;;;;;;;63.20;31.67;;;;;;;-143.21;74.30;73645.06;5091145;23;20194;31
2024/01/17 09:00:47;;;;;;;;;;;;;;;;;;;;;
2024/01/17 09:03:17;;;;;;;57.83;29.77;;;;;;;-143.21;73.29;73621.25;4943561;29;20221;-94
2024/01/17 09:08:42;;;;;;;69.87;33.63;;;;;;;-143.21;73.15;73621.25;4950359;29;20202;-96
2024/01/17 09:14:11;;;;;;;53.07;31.03;;;;;;;-143.21;74.04;73631.19;4930217;29;20238;-94
2024/01/17 09:16:43;;;;;;;66.50;31.83;;;;;;;-143.21;74.47;73611.34;4931081;29;20206;-95
2024/01/17 09:19:10;;;;;;;56.07;30.13;;;;;;;-143.21;74.12;73601.41;4936484;29;20234;-95
2024/01/17 09:21:42;;;;;;;57.43;29.73;;;;;;;-143.21;74.15;73625.22;4936025;29;20222;-95
2024/01/17 09:24:25;;;;;;;61.07;31.40;;;;;;;-143.21;74.00;73611.34;4942515;29;20254;-96
2024/01/17 09:26:52;;;;;;;57.23;30.73;;;;;;;-143.21;74.30;73599.44;4947574;29;20214;-93
2024/01/17 09:29:23;;;;;;;55.30;30.67;;;;;;;-143.21;74.47;73581.59;4940143;29;20207;-94
2024/01/17 09:31:53;;;;;;;59.30;30.53;;;;;;;-143.21;73.62;73557.78;4926861;29;20201;-93
2024/01/17 09:34:23;;;;;;;55.33;30.87;;;;;;;-143.21;74.22;73557.78;4931675;29;20249;-96
2024/01/17 09:36:57;;;;;;;54.27;30.33;;;;;;;-143.21;74.63;73555.78;4946086;29;20202;-95
2024/01/17 09:39:26;;;;;;;53.87;27.73;;;;;;;-143.21;74.01;73541.91;4949332;29;20221;-96
2024/01/17 09:41:56;;;;;;;55.83;29.53;;;;;;;-143.21;72.99;73512.16;4957335;29;20267;-96
2024/01/17 09:44:40;;;;;;;56.70;29.80;;;;;;;-143.21;72.33;73514.13;4945719;29;20225;-94
2024/01/17 09:47:22;;;;;;;52.60;28.33;;;;;;;-143.21;72.41;73508.19;4950326;29;20236;-95
2024/01/17 09:49:54;;;;;;;55.87;28.90;;;;;;;-143.21;72.12;73492.31;4949482;28;20201;-94
2024/01/17 09:52:29;;;;;;;53.17;29.07;;;;;;;-143.21;72.03;73490.31;4957854;28;20234;-95
2024/01/17 09:54:57;;;;;;;55.17;28.67;;;;;;;-143.21;71.68;73488.34;4944801;28;20213;-95
2024/01/17 09:57:28;;;;;;;56.57;30.00;;;;;;;-143.21;71.49;73478.41;4929097;29;20647;-94
2024/01/17 10:00:00;;;;;;;59.47;28.90;;;;;;;-143.21;71.58;73464.53;4940389;29;20294;-94
2024/01/17 10:02:30;;;;;;;56.20;30.13;;;;;;;-143.21;71.15;73468.50;4955797;28;20219;-95
2024/01/17 10:05:07;;;;;;;55.53;30.13;;;;;;;-143.21;71.40;73466.53;4950689;29;20249;-96
2024/01/17 10:07:39;;;;;;;58.73;29.33;;;;;;;-143.21;71.35;73448.66;4936168;29;20201;-95
2024/01/17 10:10:09;;;;;;;54.97;30.03;;;;;;;-143.21;70.95;73454.63;4950121;28;20207;-93
2024/01/17 10:12:37;;;;;;;58.80;31.13;;;;;;;-143.21;70.86;73454.63;4941136;29;20268;-94
2024/01/17 10:15:13;;;;;;;61.27;31.83;;;;;;;-143.21;71.21;73450.66;4937160;29;20252;-94
2024/01/17 10:17:53;;;;;;;59.50;31.87;;;;;;;-143.21;71.35;73444.69;4932012;29;20199;-95
2024/01/17 10:20:32;;;;;;;58.63;32.97;;;;;;;-143.21;71.23;73430.81;4927858;29;20287;-94
2024/01/17 10:23:13;;;;;;;64.53;33.70;;;;;;;-143.21;71.80;73405.03;4941506;29;20215;-94
2024/01/17 10:25:42;;;;;;;66.73;34.10;;;;;;;-143.21;70.94;73359.41;4932779;29;20235;-95
2024/01/17 10:28:11;;;;;;;61.13;34.97;;;;;;;-143.21;70.08;73291.94;4937767;28;20223;-92
2024/01/17 10:33:21;;;;;;;61.87;31.17;;;;;;;-143.21;66.25;73176.91;4949008;28;20215;-93
2024/01/17 10:35:50;;;;;;;55.37;29.47;;;;;;;-143.21;65.23;73105.47;4937575;29;21047;-94
2024/01/17 10:38:17;;;;;;;54.27;28.63;;;;;;;-143.21;63.91;73018.22;4928061;29;20210;-95
2024/01/17 10:40:44;;;;;;;54.53;26.27;;;;;;;-143.21;61.68;72895.22;4922388;29;20218;-93
2024/01/17 10:43:13;;;;;;;47.87;27.57;;;;;;;-143.21;58.81;72833.75;4931837;29;20562;-94
2024/01/17 10:45:44;;;;;;;51.17;27.70;;;;;;;-143.21;57.50;72772.25;4938460;28;20237;-93
2024/01/17 10:48:13;;;;;;;47.47;28.23;;;;;;;-143.21;56.38;72732.59;4923827;29;20233;-94
2024/01/17 10:50:41;;;;;;;47.50;27.67;;;;;;;-143.21;55.86;72714.72;4933131;29;20216;-94
2024/01/17 10:53:08;;;;;;;48.53;28.80;;;;;;;-143.21;55.76;72718.69;4933707;29;20237;-94
2024/01/17 10:55:38;;;;;;;47.77;28.40;;;;;;;-143.21;56.02;72732.59;4930334;29;20292;-94
2024/01/17 10:58:09;;;;;;;53.93;28.67;;;;;;;-143.21;56.08;72756.38;4940977;29;20210;-94
2024/01/17 11:00:45;;;;;;;53.07;28.00;;;;;;;-143.21;56.71;72772.25;4922067;29;20203;-95
2024/01/17 11:03:20;;;;;;;50.83;27.50;;;;;;;-143.21;56.91;72776.22;4935834;29;20222;-95
2024/01/17 11:05:51;;;;;;;49.50;28.43;;;;;;;-143.21;56.42;72807.97;4929934;29;20226;-94
2024/01/17 11:08:19;;;;;;;51.13;26.90;;;;;;;-143.21;56.69;72802.00;4936187;29;20203;-95
2024/01/17 11:10:48;;;;;;;52.10;29.50;;;;;;;-143.21;56.50;72766.31;4948862;29;20210;-95
2024/01/17 11:13:17;;;;;;;50.83;28.87;;;;;;;-143.21;55.69;72742.50;4927215;29;20213;-96
2024/01/17 11:15:47;;;;;;;53.57;29.83;;;;;;;-143.21;56.66;72698.88;4928329;29;20561;-92
2024/01/17 11:18:15;;;;;;;46.83;26.80;;;;;;;-143.21;54.42;72671.09;4923930;29;20557;-91
2024/01/17 11:20:45;;;;;;;51.47;27.97;;;;;;;-143.21;54.19;72655.25;4944117;29;20664;-91
2024/01/17 11:23:25;;;;;;;49.20;27.60;;;;;;;-143.21;54.22;72661.19;4939533;29;20289;-92
2024/01/17 11:26:02;;;;;;;47.80;26.70;;;;;;;-143.21;54.40;72655.25;4921212;29;20232;-92
2024/01/17 11:28:40;;;;;;;46.50;27.57;;;;;;;-143.21;54.35;72651.28;4931782;29;20678;-92
2024/01/17 11:31:23;;;;;;;49.40;25.87;;;;;;;-143.21;53.90;72641.34;4927423;29;20678;-95
2024/01/17 11:33:51;;;;;;;47.70;25.73;;;;;;;-143.21;54.33;72643.34;4923322;29;20276;-91
2024/01/17 11:36:44;;;;;;;57.97;24.73;;;;;;;-143.21;53.35;72625.47;4937340;29;20202;-94
2024/01/17 11:39:12;;;;;;;40.23;21.80;;;;;;;-143.21;53.53;72627.47;4936977;29;20688;-92
2024/01/17 11:41:39;;;;;;;38.80;21.73;;;;;;;-143.21;53.18;72615.56;4934911;29;20236;-91
2024/01/17 11:44:10;;;;;;;40.63;22.70;;;;;;;-143.21;51.95;72591.78;4950771;29;20226;-91
2024/01/17 11:46:38;;;;;;;39.33;21.53;;;;;;;-143.21;52.03;72544.16;4940083;29;20194;-92
2024/01/17 11:49:06;;;;;;;39.77;22.07;;;;;;;-143.21;50.77;72532.28;4935337;29;20234;-92
2024/01/17 11:51:34;;;;;;;39.77;21.77;;;;;;;-143.21;50.96;72558.06;4937965;29;20237;-92
2024/01/17 11:54:03;;;;;;;35.30;21.93;;;;;;;-143.21;52.45;72593.75;4930887;29;20202;-92
2024/01/17 11:56:31;;;;;;;43.50;21.70;;;;;;;-143.21;52.91;72631.44;4930518;29;20209;-92
2024/01/17 11:59:04;;;;;;;41.63;21.97;;;;;;;-143.21;53.56;72637.38;4929550;29;20266;-91
2024/01/17 12:01:42;;;;;;;39.50;20.53;;;;;;;-143.21;53.07;72583.84;4937927;29;20305;-92
2024/01/17 12:04:15;;;;;;;34.73;20.37;;;;;;;-143.21;52.53;72536.25;4929836;29;20226;-91
2024/01/17 12:06:43;;;;;;;39.33;20.30;;;;;;;-143.21;52.02;72514.41;4926046;29;20955;-92
2024/01/17 12:09:18;;;;;;;33.03;20.17;;;;;;;-143.21;51.29;72437.06;4932132;29;20199;-94
2024/01/17 12:11:46;;;;;;;43.77;21.07;;;;;;;-143.21;49.73;72363.69;4936720;28;20229;-92
2024/01/17 12:14:14;;;;;;;37.30;21.07;;;;;;;-143.21;49.02;72363.69;4932349;29;20202;-94
2024/01/17 12:16:42;;;;;;;37.20;21.87;;;;;;;-143.21;49.31;72385.50;4938805;29;20202;-90
2024/01/17 12:19:11;;;;;;;33.57;19.77;;;;;;;-143.21;49.79;72389.47;4945373;29;20276;-91
2024/01/17 12:21:38;;;;;;;36.40;20.50;;;;;;;-143.21;49.81;72391.47;4932845;29;20194;-92
2024/01/17 12:24:05;;;;;;;31.33;18.33;;;;;;;-143.21;50.07;72371.63;4938523;29;20607;-93
2024/01/17 12:26:34;;;;;;;34.27;19.80;;;;;;;-143.21;49.56;72260.56;4937719;29;20274;-92
2024/01/17 12:29:08;;;;;;;33.97;20.33;;;;;;;-143.21;47.70;72147.53;4938607;29;20278;-93
2024/01/17 12:31:35;;;;;;;33.87;18.50;;;;;;;-143.21;45.96;72054.34;4933272;29;20317;-92
2024/01/17 12:34:10;;;;;;;31.33;17.67;;;;;;;-143.21;44.38;71971.06;4930736;29;20206;-94
2024/01/17 12:36:37;;;;;;;33.13;17.30;;;;;;;-143.21;43.29;71881.81;4924297;29;20596;-93
2024/01/17 12:39:05;;;;;;;23.80;15.80;;;;;;;-143.21;40.67;71786.63;4927423;29;20214;-91
2024/01/17 12:41:34;;;;;;;31.80;18.10;;;;;;;-143.21;38.44;71750.94;4935407;29;20255;-93
2024/01/17 12:44:01;;;;;;;30.13;17.43;;;;;;;-143.21;38.11;71741.03;4935126;29;20205;-92
2024/01/17 12:46:28;;;;;;;26.57;16.73;;;;;;;-143.21;38.16;71705.34;4935911;29;20202;-93
2024/01/17 12:48:58;;;;;;;31.00;16.97;;;;;;;-143.21;36.96;71701.38;4929055;29;20255;-92
2024/01/17 12:51:31;;;;;;;25.20;16.30;;;;;;;-143.21;36.92;71687.50;4928764;29;20198;-93
2024/01/17 12:53:59;;;;;;;28.17;15.90;;;;;;;-143.21;37.12;71685.50;4937862;29;20238;-93
2024/01/17 12:56:27;;;;;;;28.30;17.20;;;;;;;-143.21;36.59;71699.41;4928830;29;20195;-93
2024/01/17 12:58:54;;;;;;;24.43;16.33;;;;;;;-143.21;36.87;71741.03;4923824;29;20623;-92
2024/01/17 13:01:24;;;;;;;28.77;16.53;;;;;;;-143.21;37.47;71762.84;4935895;29;20233;-93
2024/01/17 13:04:00;;;;;;;32.20;17.27;;;;;;;-143.21;37.37;71780.69;4928917;29;20649;-94
2024/01/17 13:06:28;;;;;;;28.00;16.17;;;;;;;-143.21;37.44;71816.38;4931339;29;20226;-94
2024/01/17 13:08:58;;;;;;;29.43;16.47;;;;;;;-143.21;37.72;71834.22;4934923;29;20186;-94
2024/01/17 13:11:28;;;;;;;27.87;16.33;;;;;;;-143.21;38.27;71848.09;4936642;29;20325;-93
2024/01/17 13:13:59;;;;;;;31.43;16.17;;;;;;;-143.21;38.19;71901.66;4923799;29;20994;-94
2024/01/17 13:16:31;;;;;;;28.80;15.67;;;;;;;-143.21;38.96;71913.53;4934869;29;20209;-93
2024/01/17 13:18:59;;;;;;;37.27;15.80;;;;;;;-143.21;39.81;71943.28;4934429;29;20202;-93
2024/01/17 13:21:26;;;;;;;29.00;16.80;;;;;;;-143.21;40.13;71951.22;4938939;29;20583;-93
2024/01/17 13:23:54;;;;;;;27.23;15.93;;;;;;;-143.21;39.71;71963.13;4924329;29;20203;-95
2024/01/17 13:26:21;;;;;;;32.10;15.07;;;;;;;-143.21;40.10;71941.31;4949694;29;20257;-94
2024/01/17 13:28:48;;;;;;;30.50;13.97;;;;;;;-143.21;40.13;71971.06;4937944;29;20202;-94
2024/01/17 13:31:16;;;;;;;23.37;13.90;;;;;;;-143.21;40.07;71990.88;4936482;29;20198;-93
2024/01/17 13:33:43;;;;;;;24.03;13.07;;;;;;;-143.21;40.41;71992.88;4934911;29;20206;-93
2024/01/17 13:36:10;;;;;;;22.63;13.27;;;;;;;-143.21;40.48;72008.72;4923003;29;20226;-93
2024/01/17 13:38:37;;;;;;;19.77;12.23;;;;;;;-143.21;41.30;72080.13;4931526;29;20203;-94
2024/01/17 13:41:06;;;;;;;25.07;12.20;;;;;;;-143.21;42.48;72115.81;4915892;29;20206;-94